sensor_id;sensor_type;location;lat;lon;timestamp;pressure;altitude;pressure_sealevel;temperature;humidity
16613;BME280;8419;52.358;9.752;2023-02-17T00:01:18;101160.00;;;18.21;39.82
16613;BME280;8419;52.358;9.752;2023-02-17T00:04:05;101169.00;;;18.15;40.07
16613;BME280;8419;52.358;9.752;2023-02-17T00:06:50;101158.00;;;18.23;39.92
16613;BME280;8419;52.358;9.752;2023-02-17T00:09:37;101159.00;;;18.25;40.02
16613;BME280;8419;52.358;9.752;2023-02-17T00:12:26;101148.00;;;18.18;40.20
16613;BME280;8419;52.358;9.752;2023-02-17T00:15:11;101148.00;;;18.28;40.07
16613;BME280;8419;52.358;9.752;2023-02-17T00:17:57;101149.00;;;18.28;40.13
16613;BME280;8419;52.358;9.752;2023-02-17T00:20:42;101146.00;;;18.28;40.17
16613;BME280;8419;52.358;9.752;2023-02-17T00:23:28;101150.00;;;18.37;40.08
16613;BME280;8419;52.358;9.752;2023-02-17T00:26:14;101151.00;;;18.36;40.10
16613;BME280;8419;52.358;9.752;2023-02-17T00:29:01;101143.00;;;18.37;40.08
16613;BME280;8419;52.358;9.752;2023-02-17T00:31:46;101147.00;;;18.37;40.21
16613;BME280;8419;52.358;9.752;2023-02-17T00:34:32;101148.00;;;18.39;40.22
16613;BME280;8419;52.358;9.752;2023-02-17T00:37:17;101142.00;;;18.46;40.13
16613;BME280;8419;52.358;9.752;2023-02-17T00:40:05;101138.00;;;18.41;40.28
16613;BME280;8419;52.358;9.752;2023-02-17T00:42:50;101145.00;;;18.48;40.29
16613;BME280;8419;52.358;9.752;2023-02-17T00:45:39;101142.00;;;18.51;40.33
16613;BME280;8419;52.358;9.752;2023-02-17T00:48:27;101144.00;;;18.57;40.26
16613;BME280;8419;52.358;9.752;2023-02-17T00:51:12;101145.00;;;18.57;40.32
16613;BME280;8419;52.358;9.752;2023-02-17T00:53:57;101138.00;;;18.57;40.46
16613;BME280;8419;52.358;9.752;2023-02-17T00:56:44;101143.00;;;18.66;40.57
16613;BME280;8419;52.358;9.752;2023-02-17T00:59:30;101139.00;;;18.64;40.66
16613;BME280;8419;52.358;9.752;2023-02-17T01:02:15;101128.00;;;18.68;40.71
16613;BME280;8419;52.358;9.752;2023-02-17T01:05:01;101132.00;;;18.71;40.75
16613;BME280;8419;52.358;9.752;2023-02-17T01:07:46;101132.00;;;18.80;40.74
16613;BME280;8419;52.358;9.752;2023-02-17T01:10:36;101129.00;;;18.86;40.68
16613;BME280;8419;52.358;9.752;2023-02-17T01:13:22;101132.00;;;18.94;40.57
16613;BME280;8419;52.358;9.752;2023-02-17T01:16:16;101130.00;;;18.98;40.55
16613;BME280;8419;52.358;9.752;2023-02-17T01:19:04;101130.00;;;18.99;40.66
16613;BME280;8419;52.358;9.752;2023-02-17T01:21:50;101116.00;;;19.09;40.58
16613;BME280;8419;52.358;9.752;2023-02-17T01:24:36;101113.00;;;19.03;40.84
16613;BME280;8419;52.358;9.752;2023-02-17T01:27:22;101119.00;;;19.06;40.91
16613;BME280;8419;52.358;9.752;2023-02-17T01:30:09;101120.00;;;19.13;40.92
16613;BME280;8419;52.358;9.752;2023-02-17T01:32:55;101111.00;;;19.22;40.76
16613;BME280;8419;52.358;9.752;2023-02-17T01:35:41;101097.00;;;19.23;40.77
16613;BME280;8419;52.358;9.752;2023-02-17T01:38:27;101106.00;;;19.21;41.09
16613;BME280;8419;52.358;9.752;2023-02-17T01:41:13;101092.00;;;19.25;41.15
16613;BME280;8419;52.358;9.752;2023-02-17T01:44:12;101083.00;;;19.50;40.71
16613;BME280;8419;52.358;9.752;2023-02-17T01:46:59;101084.00;;;19.52;40.70
16613;BME280;8419;52.358;9.752;2023-02-17T01:49:44;101074.00;;;19.65;40.61
16613;BME280;8419;52.358;9.752;2023-02-17T01:52:29;101067.00;;;19.67;40.58
16613;BME280;8419;52.358;9.752;2023-02-17T01:55:18;101062.00;;;19.64;40.70
16613;BME280;8419;52.358;9.752;2023-02-17T01:58:05;101054.00;;;19.72;40.50
16613;BME280;8419;52.358;9.752;2023-02-17T02:00:52;101049.00;;;19.69;40.52
16613;BME280;8419;52.358;9.752;2023-02-17T02:03:40;101048.00;;;19.63;40.67
16613;BME280;8419;52.358;9.752;2023-02-17T02:06:27;101058.00;;;19.55;40.86
16613;BME280;8419;52.358;9.752;2023-02-17T02:09:17;101061.00;;;19.62;40.74
16613;BME280;8419;52.358;9.752;2023-02-17T02:12:17;101038.00;;;19.74;40.64
16613;BME280;8419;52.358;9.752;2023-02-17T02:15:06;101048.00;;;19.69;40.91
16613;BME280;8419;52.358;9.752;2023-02-17T02:18:04;101040.00;;;19.73;40.90
16613;BME280;8419;52.358;9.752;2023-02-17T02:24:25;101039.00;;;19.83;40.93
16613;BME280;8419;52.358;9.752;2023-02-17T02:27:30;101043.00;;;19.66;41.41
16613;BME280;8419;52.358;9.752;2023-02-17T02:34:23;101032.00;;;19.88;41.54
16613;BME280;8419;52.358;9.752;2023-02-17T02:37:16;101029.00;;;19.82;41.52
16613;BME280;8419;52.358;9.752;2023-02-17T02:40:07;101035.00;;;19.78;41.60
16613;BME280;8419;52.358;9.752;2023-02-17T02:42:54;101030.00;;;19.81;41.60
16613;BME280;8419;52.358;9.752;2023-02-17T02:45:41;101028.00;;;19.84;41.55
16613;BME280;8419;52.358;9.752;2023-02-17T02:48:27;101019.00;;;19.85;41.60
16613;BME280;8419;52.358;9.752;2023-02-17T02:54:41;101004.00;;;19.86;41.76
16613;BME280;8419;52.358;9.752;2023-02-17T02:57:37;101006.00;;;19.96;41.62
16613;BME280;8419;52.358;9.752;2023-02-17T03:00:34;101000.00;;;20.07;41.38
16613;BME280;8419;52.358;9.752;2023-02-17T03:03:30;100989.00;;;20.04;41.49
16613;BME280;8419;52.358;9.752;2023-02-17T03:06:24;100993.00;;;20.06;41.50
16613;BME280;8419;52.358;9.752;2023-02-17T03:09:15;100980.00;;;20.05;41.53
16613;BME280;8419;52.358;9.752;2023-02-17T03:12:02;100992.00;;;20.10;41.49
16613;BME280;8419;52.358;9.752;2023-02-17T03:14:50;100978.00;;;20.19;41.29
16613;BME280;8419;52.358;9.752;2023-02-17T03:17:37;100990.00;;;20.30;41.09
16613;BME280;8419;52.358;9.752;2023-02-17T03:20:24;100979.00;;;20.33;41.09
16613;BME280;8419;52.358;9.752;2023-02-17T03:23:13;100983.00;;;20.31;41.17
16613;BME280;8419;52.358;9.752;2023-02-17T03:25:59;100971.00;;;20.21;41.42
16613;BME280;8419;52.358;9.752;2023-02-17T03:28:45;100977.00;;;20.27;41.32
16613;BME280;8419;52.358;9.752;2023-02-17T03:31:31;100974.00;;;20.27;41.33
16613;BME280;8419;52.358;9.752;2023-02-17T03:34:17;100977.00;;;20.38;41.07
16613;BME280;8419;52.358;9.752;2023-02-17T03:37:03;100971.00;;;20.30;41.26
16613;BME280;8419;52.358;9.752;2023-02-17T03:39:48;100964.00;;;20.30;41.25
16613;BME280;8419;52.358;9.752;2023-02-17T03:42:34;100969.00;;;20.30;41.29
16613;BME280;8419;52.358;9.752;2023-02-17T03:45:20;100961.00;;;20.35;41.21
16613;BME280;8419;52.358;9.752;2023-02-17T03:48:06;100959.00;;;20.39;41.14
16613;BME280;8419;52.358;9.752;2023-02-17T03:50:52;100968.00;;;20.36;41.17
16613;BME280;8419;52.358;9.752;2023-02-17T03:53:39;100942.00;;;20.33;41.28
16613;BME280;8419;52.358;9.752;2023-02-17T03:56:25;100934.00;;;20.27;41.44
16613;BME280;8419;52.358;9.752;2023-02-17T03:59:13;100945.00;;;20.29;41.39
16613;BME280;8419;52.358;9.752;2023-02-17T04:01:59;100941.00;;;20.26;41.39
16613;BME280;8419;52.358;9.752;2023-02-17T04:04:45;100960.00;;;20.24;41.49
16613;BME280;8419;52.358;9.752;2023-02-17T04:07:30;100951.00;;;20.19;41.59
16613;BME280;8419;52.358;9.752;2023-02-17T04:10:17;100946.00;;;20.25;41.51
16613;BME280;8419;52.358;9.752;2023-02-17T04:13:03;100939.00;;;20.32;41.34
16613;BME280;8419;52.358;9.752;2023-02-17T04:15:49;100940.00;;;20.38;41.24
16613;BME280;8419;52.358;9.752;2023-02-17T04:18:36;100938.00;;;20.31;41.35
16613;BME280;8419;52.358;9.752;2023-02-17T04:21:22;100934.00;;;20.25;41.52
16613;BME280;8419;52.358;9.752;2023-02-17T04:24:09;100932.00;;;20.21;41.63
16613;BME280;8419;52.358;9.752;2023-02-17T04:26:54;100936.00;;;20.28;41.52
16613;BME280;8419;52.358;9.752;2023-02-17T04:29:40;100938.00;;;20.28;41.56
16613;BME280;8419;52.358;9.752;2023-02-17T04:32:26;100932.00;;;20.29;41.52
16613;BME280;8419;52.358;9.752;2023-02-17T04:35:11;100945.00;;;20.21;41.76
16613;BME280;8419;52.358;9.752;2023-02-17T04:37:57;100940.00;;;20.16;41.85
16613;BME280;8419;52.358;9.752;2023-02-17T04:40:43;100945.00;;;20.23;41.76
16613;BME280;8419;52.358;9.752;2023-02-17T04:43:29;100934.00;;;20.33;41.53
16613;BME280;8419;52.358;9.752;2023-02-17T04:46:15;100921.00;;;20.34;41.53
16613;BME280;8419;52.358;9.752;2023-02-17T04:49:00;100909.00;;;20.17;41.97
16613;BME280;8419;52.358;9.752;2023-02-17T04:51:46;100911.00;;;20.19;42.00
16613;BME280;8419;52.358;9.752;2023-02-17T04:54:31;100917.00;;;20.15;42.05
16613;BME280;8419;52.358;9.752;2023-02-17T04:57:19;100914.00;;;20.07;42.23
16613;BME280;8419;52.358;9.752;2023-02-17T05:00:08;100915.00;;;20.09;42.25
16613;BME280;8419;52.358;9.752;2023-02-17T05:02:54;100922.00;;;20.07;42.36
16613;BME280;8419;52.358;9.752;2023-02-17T05:05:39;100915.00;;;20.03;42.46
16613;BME280;8419;52.358;9.752;2023-02-17T05:08:25;100912.00;;;20.09;42.38
16613;BME280;8419;52.358;9.752;2023-02-17T05:11:11;100906.00;;;20.22;42.11
16613;BME280;8419;52.358;9.752;2023-02-17T05:13:56;100902.00;;;20.06;42.49
16613;BME280;8419;52.358;9.752;2023-02-17T05:16:42;100898.00;;;20.07;42.48
16613;BME280;8419;52.358;9.752;2023-02-17T05:19:27;100901.00;;;20.07;42.55
16613;BME280;8419;52.358;9.752;2023-02-17T05:22:13;100900.00;;;20.19;42.35
16613;BME280;8419;52.358;9.752;2023-02-17T05:24:59;100891.00;;;20.30;42.18
16613;BME280;8419;52.358;9.752;2023-02-17T05:27:44;100898.00;;;20.28;42.17
16613;BME280;8419;52.358;9.752;2023-02-17T05:30:30;100872.00;;;20.27;42.33
16613;BME280;8419;52.358;9.752;2023-02-17T05:33:16;100885.00;;;20.36;42.17
16613;BME280;8419;52.358;9.752;2023-02-17T05:36:03;100882.00;;;20.26;42.35
16613;BME280;8419;52.358;9.752;2023-02-17T05:38:49;100872.00;;;20.30;42.30
16613;BME280;8419;52.358;9.752;2023-02-17T05:41:36;100874.00;;;20.25;42.40
16613;BME280;8419;52.358;9.752;2023-02-17T05:44:22;100874.00;;;20.34;42.21
16613;BME280;8419;52.358;9.752;2023-02-17T05:47:07;100867.00;;;20.19;42.50
16613;BME280;8419;52.358;9.752;2023-02-17T05:49:53;100868.00;;;20.28;42.36
16613;BME280;8419;52.358;9.752;2023-02-17T05:52:38;100864.00;;;20.25;42.38
16613;BME280;8419;52.358;9.752;2023-02-17T05:55:26;100853.00;;;20.24;42.37
16613;BME280;8419;52.358;9.752;2023-02-17T05:58:12;100858.00;;;20.36;42.08
16613;BME280;8419;52.358;9.752;2023-02-17T06:00:58;100846.00;;;20.34;42.07
16613;BME280;8419;52.358;9.752;2023-02-17T06:03:43;100846.00;;;20.44;41.87
16613;BME280;8419;52.358;9.752;2023-02-17T06:06:32;100839.00;;;20.50;41.73
16613;BME280;8419;52.358;9.752;2023-02-17T06:09:18;100845.00;;;20.51;41.70
16613;BME280;8419;52.358;9.752;2023-02-17T06:12:04;100840.00;;;20.49;41.64
16613;BME280;8419;52.358;9.752;2023-02-17T06:14:50;100845.00;;;20.52;41.50
16613;BME280;8419;52.358;9.752;2023-02-17T06:17:37;100853.00;;;20.54;41.38
16613;BME280;8419;52.358;9.752;2023-02-17T06:20:22;100855.00;;;20.57;41.27
16613;BME280;8419;52.358;9.752;2023-02-17T06:23:08;100858.00;;;20.60;41.13
16613;BME280;8419;52.358;9.752;2023-02-17T06:25:54;100856.00;;;20.62;41.05
16613;BME280;8419;52.358;9.752;2023-02-17T06:28:40;100856.00;;;20.68;40.87
16613;BME280;8419;52.358;9.752;2023-02-17T06:31:29;100856.00;;;20.65;40.88
16613;BME280;8419;52.358;9.752;2023-02-17T06:34:16;100864.00;;;20.70;40.73
16613;BME280;8419;52.358;9.752;2023-02-17T06:37:03;100849.00;;;20.77;40.55
16613;BME280;8419;52.358;9.752;2023-02-17T06:39:48;100849.00;;;20.68;40.71
16613;BME280;8419;52.358;9.752;2023-02-17T06:42:37;100839.00;;;20.76;40.39
16613;BME280;8419;52.358;9.752;2023-02-17T06:45:23;100838.00;;;20.74;40.47
16613;BME280;8419;52.358;9.752;2023-02-17T06:48:08;100826.00;;;20.76;40.29
16613;BME280;8419;52.358;9.752;2023-02-17T06:50:54;100831.00;;;20.70;40.22
16613;BME280;8419;52.358;9.752;2023-02-17T06:53:40;100830.00;;;20.69;40.14
16613;BME280;8419;52.358;9.752;2023-02-17T06:56:26;100809.00;;;20.82;39.87
16613;BME280;8419;52.358;9.752;2023-02-17T06:59:12;100818.00;;;20.75;39.88
16613;BME280;8419;52.358;9.752;2023-02-17T07:01:58;100835.00;;;20.77;39.81
16613;BME280;8419;52.358;9.752;2023-02-17T07:04:44;100840.00;;;20.80;39.72
16613;BME280;8419;52.358;9.752;2023-02-17T07:07:30;100841.00;;;20.79;39.76
16613;BME280;8419;52.358;9.752;2023-02-17T07:10:16;100847.00;;;20.82;39.55
16613;BME280;8419;52.358;9.752;2023-02-17T07:13:02;100832.00;;;20.86;39.50
16613;BME280;8419;52.358;9.752;2023-02-17T07:15:48;100806.00;;;20.91;39.35
16613;BME280;8419;52.358;9.752;2023-02-17T07:18:34;100835.00;;;20.91;39.26
16613;BME280;8419;52.358;9.752;2023-02-17T07:21:20;100837.00;;;20.92;39.15
16613;BME280;8419;52.358;9.752;2023-02-17T07:24:06;100838.00;;;20.91;39.14
16613;BME280;8419;52.358;9.752;2023-02-17T07:26:52;100825.00;;;20.93;39.12
16613;BME280;8419;52.358;9.752;2023-02-17T07:29:40;100826.00;;;20.95;39.08
16613;BME280;8419;52.358;9.752;2023-02-17T07:32:26;100820.00;;;20.96;39.11
16613;BME280;8419;52.358;9.752;2023-02-17T07:35:11;100798.00;;;21.01;39.00
16613;BME280;8419;52.358;9.752;2023-02-17T07:37:57;100798.00;;;20.95;39.15
16613;BME280;8419;52.358;9.752;2023-02-17T07:40:43;100790.00;;;20.92;39.26
16613;BME280;8419;52.358;9.752;2023-02-17T07:43:29;100786.00;;;20.97;39.23
16613;BME280;8419;52.358;9.752;2023-02-17T07:46:14;100786.00;;;20.95;39.30
16613;BME280;8419;52.358;9.752;2023-02-17T07:49:00;100775.00;;;20.92;39.40
16613;BME280;8419;52.358;9.752;2023-02-17T07:51:47;100783.00;;;20.98;39.31
16613;BME280;8419;52.358;9.752;2023-02-17T07:54:33;100790.00;;;21.03;39.26
16613;BME280;8419;52.358;9.752;2023-02-17T07:57:19;100789.00;;;20.99;39.38
16613;BME280;8419;52.358;9.752;2023-02-17T08:00:07;100783.00;;;20.98;39.45
16613;BME280;8419;52.358;9.752;2023-02-17T08:02:52;100778.00;;;20.88;39.62
16613;BME280;8419;52.358;9.752;2023-02-17T08:05:38;100774.00;;;20.77;39.90
16613;BME280;8419;52.358;9.752;2023-02-17T08:08:25;100775.00;;;20.84;39.82
16613;BME280;8419;52.358;9.752;2023-02-17T08:11:33;100773.00;;;20.80;39.94
16613;BME280;8419;52.358;9.752;2023-02-17T08:14:37;100778.00;;;20.92;39.78
16613;BME280;8419;52.358;9.752;2023-02-17T08:17:26;100779.00;;;21.11;39.38
16613;BME280;8419;52.358;9.752;2023-02-17T08:20:11;100776.00;;;21.09;39.50
16613;BME280;8419;52.358;9.752;2023-02-17T08:22:59;100773.00;;;21.04;39.59
16613;BME280;8419;52.358;9.752;2023-02-17T08:25:47;100761.00;;;21.05;39.61
16613;BME280;8419;52.358;9.752;2023-02-17T08:28:33;100772.00;;;21.10;39.58
16613;BME280;8419;52.358;9.752;2023-02-17T08:31:22;100765.00;;;21.07;39.65
16613;BME280;8419;52.358;9.752;2023-02-17T08:34:10;100754.00;;;21.09;39.70
16613;BME280;8419;52.358;9.752;2023-02-17T08:36:56;100743.00;;;21.10;39.69
16613;BME280;8419;52.358;9.752;2023-02-17T08:39:42;100754.00;;;21.12;39.68
16613;BME280;8419;52.358;9.752;2023-02-17T08:42:31;100758.00;;;21.13;39.69
16613;BME280;8419;52.358;9.752;2023-02-17T08:45:17;100762.00;;;21.25;39.53
16613;BME280;8419;52.358;9.752;2023-02-17T08:48:02;100758.00;;;21.19;39.67
16613;BME280;8419;52.358;9.752;2023-02-17T08:50:48;100751.00;;;21.21;39.62
16613;BME280;8419;52.358;9.752;2023-02-17T08:53:36;100738.00;;;21.23;39.63
16613;BME280;8419;52.358;9.752;2023-02-17T08:56:23;100734.00;;;21.29;39.56
16613;BME280;8419;52.358;9.752;2023-02-17T08:59:10;100738.00;;;21.29;39.58
16613;BME280;8419;52.358;9.752;2023-02-17T09:01:56;100736.00;;;21.28;39.67
16613;BME280;8419;52.358;9.752;2023-02-17T09:04:41;100730.00;;;21.31;39.67
16613;BME280;8419;52.358;9.752;2023-02-17T09:07:28;100716.00;;;21.35;39.62
16613;BME280;8419;52.358;9.752;2023-02-17T09:10:13;100720.00;;;21.24;39.89
16613;BME280;8419;52.358;9.752;2023-02-17T09:12:59;100717.00;;;21.28;39.87
16613;BME280;8419;52.358;9.752;2023-02-17T09:15:44;100725.00;;;21.34;39.86
16613;BME280;8419;52.358;9.752;2023-02-17T09:18:30;100715.00;;;21.38;39.77
16613;BME280;8419;52.358;9.752;2023-02-17T09:21:16;100728.00;;;21.43;39.74
16613;BME280;8419;52.358;9.752;2023-02-17T09:24:02;100723.00;;;21.49;39.64
16613;BME280;8419;52.358;9.752;2023-02-17T09:26:48;100714.00;;;21.58;39.49
16613;BME280;8419;52.358;9.752;2023-02-17T09:29:35;100740.00;;;21.56;39.61
16613;BME280;8419;52.358;9.752;2023-02-17T09:32:21;100727.00;;;21.58;39.68
16613;BME280;8419;52.358;9.752;2023-02-17T09:35:10;100721.00;;;21.61;39.72
16613;BME280;8419;52.358;9.752;2023-02-17T09:37:56;100698.00;;;21.65;39.71
16613;BME280;8419;52.358;9.752;2023-02-17T09:40:44;100715.00;;;21.67;39.76
16613;BME280;8419;52.358;9.752;2023-02-17T09:43:31;100718.00;;;21.66;39.90
16613;BME280;8419;52.358;9.752;2023-02-17T09:46:22;100708.00;;;21.72;39.88
16613;BME280;8419;52.358;9.752;2023-02-17T09:49:13;100714.00;;;21.65;40.14
16613;BME280;8419;52.358;9.752;2023-02-17T09:52:03;100728.00;;;21.69;40.13
16613;BME280;8419;52.358;9.752;2023-02-17T09:54:58;100724.00;;;21.61;40.36
16613;BME280;8419;52.358;9.752;2023-02-17T09:57:52;100719.00;;;21.63;40.47
16613;BME280;8419;52.358;9.752;2023-02-17T10:00:42;100720.00;;;21.73;40.38
16613;BME280;8419;52.358;9.752;2023-02-17T10:03:32;100716.00;;;21.66;40.57
16613;BME280;8419;52.358;9.752;2023-02-17T10:06:25;100703.00;;;21.70;40.54
16613;BME280;8419;52.358;9.752;2023-02-17T10:09:17;100696.00;;;21.64;40.71
16613;BME280;8419;52.358;9.752;2023-02-17T10:12:07;100683.00;;;21.67;40.72
16613;BME280;8419;52.358;9.752;2023-02-17T10:14:56;100703.00;;;21.71;40.74
16613;BME280;8419;52.358;9.752;2023-02-17T10:17:49;100686.00;;;21.75;40.69
16613;BME280;8419;52.358;9.752;2023-02-17T10:20:41;100675.00;;;21.75;40.75
16613;BME280;8419;52.358;9.752;2023-02-17T10:23:34;100679.00;;;21.86;40.62
16613;BME280;8419;52.358;9.752;2023-02-17T10:26:27;100691.00;;;21.85;40.69
16613;BME280;8419;52.358;9.752;2023-02-17T10:29:29;100673.00;;;21.86;40.68
16613;BME280;8419;52.358;9.752;2023-02-17T10:32:21;100687.00;;;21.80;40.88
16613;BME280;8419;52.358;9.752;2023-02-17T10:35:15;100707.00;;;21.82;40.87
16613;BME280;8419;52.358;9.752;2023-02-17T10:38:09;100703.00;;;21.86;40.85
16613;BME280;8419;52.358;9.752;2023-02-17T10:41:00;100694.00;;;21.87;40.88
16613;BME280;8419;52.358;9.752;2023-02-17T10:43:57;100707.00;;;21.91;40.80
16613;BME280;8419;52.358;9.752;2023-02-17T10:46:43;100721.00;;;21.87;40.92
16613;BME280;8419;52.358;9.752;2023-02-17T10:49:35;100682.00;;;21.91;40.90
16613;BME280;8419;52.358;9.752;2023-02-17T10:52:30;100678.00;;;22.00;40.80
16613;BME280;8419;52.358;9.752;2023-02-17T10:55:22;100678.00;;;22.09;40.71
16613;BME280;8419;52.358;9.752;2023-02-17T10:58:14;100673.00;;;22.26;40.37
16613;BME280;8419;52.358;9.752;2023-02-17T11:01:04;100673.00;;;22.31;40.31
16613;BME280;8419;52.358;9.752;2023-02-17T11:04:00;100668.00;;;22.39;40.08
16613;BME280;8419;52.358;9.752;2023-02-17T11:06:48;100650.00;;;22.28;40.20
16613;BME280;8419;52.358;9.752;2023-02-17T11:09:43;100653.00;;;22.33;40.11
16613;BME280;8419;52.358;9.752;2023-02-17T11:12:33;100669.00;;;22.36;40.05
16613;BME280;8419;52.358;9.752;2023-02-17T11:15:26;100646.00;;;22.40;39.96
16613;BME280;8419;52.358;9.752;2023-02-17T11:18:24;100640.00;;;22.48;39.86
16613;BME280;8419;52.358;9.752;2023-02-17T11:21:19;100636.00;;;22.62;39.64
16613;BME280;8419;52.358;9.752;2023-02-17T11:24:09;100636.00;;;22.45;39.85
16613;BME280;8419;52.358;9.752;2023-02-17T11:27:03;100628.00;;;22.50;39.70
16613;BME280;8419;52.358;9.752;2023-02-17T11:29:52;100635.00;;;22.72;39.29
16613;BME280;8419;52.358;9.752;2023-02-17T11:32:39;100626.00;;;22.94;38.71
16613;BME280;8419;52.358;9.752;2023-02-17T11:35:43;100615.00;;;23.04;38.65
16613;BME280;8419;52.358;9.752;2023-02-17T11:38:48;100615.00;;;23.20;38.47
16613;BME280;8419;52.358;9.752;2023-02-17T11:41:39;100625.00;;;23.31;38.14
16613;BME280;8419;52.358;9.752;2023-02-17T11:44:28;100615.00;;;23.44;37.72
16613;BME280;8419;52.358;9.752;2023-02-17T11:47:21;100602.00;;;23.45;37.59
16613;BME280;8419;52.358;9.752;2023-02-17T11:50:27;100611.00;;;23.44;37.23
16613;BME280;8419;52.358;9.752;2023-02-17T11:53:28;100591.00;;;23.45;37.18
16613;BME280;8419;52.358;9.752;2023-02-17T11:56:18;100599.00;;;23.43;37.10
16613;BME280;8419;52.358;9.752;2023-02-17T11:59:20;100591.00;;;23.54;36.86
16613;BME280;8419;52.358;9.752;2023-02-17T12:02:16;100586.00;;;23.58;36.75
16613;BME280;8419;52.358;9.752;2023-02-17T12:05:16;100583.00;;;23.51;36.58
16613;BME280;8419;52.358;9.752;2023-02-17T12:08:16;100578.00;;;23.63;36.28
16613;BME280;8419;52.358;9.752;2023-02-17T12:11:11;100583.00;;;23.69;36.15
16613;BME280;8419;52.358;9.752;2023-02-17T12:14:24;100559.00;;;23.61;36.18
16613;BME280;8419;52.358;9.752;2023-02-17T12:17:17;100578.00;;;23.70;36.18
16613;BME280;8419;52.358;9.752;2023-02-17T12:20:30;100582.00;;;23.91;35.72
16613;BME280;8419;52.358;9.752;2023-02-17T12:23:36;100595.00;;;23.95;35.67
16613;BME280;8419;52.358;9.752;2023-02-17T12:26:35;100588.00;;;23.98;35.61
16613;BME280;8419;52.358;9.752;2023-02-17T12:29:29;100584.00;;;23.89;35.58
16613;BME280;8419;52.358;9.752;2023-02-17T12:32:29;100599.00;;;23.82;35.66
16613;BME280;8419;52.358;9.752;2023-02-17T12:35:22;100605.00;;;23.67;35.68
16613;BME280;8419;52.358;9.752;2023-02-17T12:38:14;100593.00;;;23.71;35.63
16613;BME280;8419;52.358;9.752;2023-02-17T12:41:05;100608.00;;;23.50;35.84
16613;BME280;8419;52.358;9.752;2023-02-17T12:43:55;100599.00;;;23.46;35.91
16613;BME280;8419;52.358;9.752;2023-02-17T12:46:43;100599.00;;;23.31;36.06
16613;BME280;8419;52.358;9.752;2023-02-17T12:49:36;100606.00;;;23.18;36.20
16613;BME280;8419;52.358;9.752;2023-02-17T12:52:38;100621.00;;;23.08;36.41
16613;BME280;8419;52.358;9.752;2023-02-17T12:55:28;100610.00;;;23.14;36.32
16613;BME280;8419;52.358;9.752;2023-02-17T12:58:18;100588.00;;;23.10;36.36
16613;BME280;8419;52.358;9.752;2023-02-17T13:01:09;100601.00;;;23.15;36.33
16613;BME280;8419;52.358;9.752;2023-02-17T13:03:59;100606.00;;;23.14;36.38
16613;BME280;8419;52.358;9.752;2023-02-17T13:06:49;100600.00;;;23.16;36.32
16613;BME280;8419;52.358;9.752;2023-02-17T13:09:40;100619.00;;;23.13;36.40
16613;BME280;8419;52.358;9.752;2023-02-17T13:12:38;100602.00;;;23.06;36.50
16613;BME280;8419;52.358;9.752;2023-02-17T13:15:32;100593.00;;;23.04;36.60
16613;BME280;8419;52.358;9.752;2023-02-17T13:18:28;100594.00;;;23.03;36.58
16613;BME280;8419;52.358;9.752;2023-02-17T13:21:26;100600.00;;;23.05;36.57
16613;BME280;8419;52.358;9.752;2023-02-17T13:24:31;100627.00;;;23.02;36.63
16613;BME280;8419;52.358;9.752;2023-02-17T13:27:29;100627.00;;;23.02;36.63
16613;BME280;8419;52.358;9.752;2023-02-17T13:30:36;100633.00;;;23.05;36.67
16613;BME280;8419;52.358;9.752;2023-02-17T13:33:29;100638.00;;;23.05;36.70
16613;BME280;8419;52.358;9.752;2023-02-17T13:36:32;100662.00;;;22.90;37.13
16613;BME280;8419;52.358;9.752;2023-02-17T13:39:51;100660.00;;;22.70;37.72
16613;BME280;8419;52.358;9.752;2023-02-17T13:45:48;100672.00;;;22.25;39.02
16613;BME280;8419;52.358;9.752;2023-02-17T13:48:38;100679.00;;;22.07;39.54
16613;BME280;8419;52.358;9.752;2023-02-17T13:51:27;100683.00;;;21.87;40.12
16613;BME280;8419;52.358;9.752;2023-02-17T13:54:14;100656.00;;;21.84;40.35
16613;BME280;8419;52.358;9.752;2023-02-17T13:57:05;100675.00;;;21.82;40.49
16613;BME280;8419;52.358;9.752;2023-02-17T13:59:50;100696.00;;;21.78;40.74
16613;BME280;8419;52.358;9.752;2023-02-17T14:02:43;100674.00;;;21.81;40.83
16613;BME280;8419;52.358;9.752;2023-02-17T14:05:41;100677.00;;;21.91;40.75
16613;BME280;8419;52.358;9.752;2023-02-17T14:08:33;100661.00;;;21.82;41.09
16613;BME280;8419;52.358;9.752;2023-02-17T14:11:26;100656.00;;;21.70;41.40
16613;BME280;8419;52.358;9.752;2023-02-17T14:14:14;100668.00;;;21.55;41.77
16613;BME280;8419;52.358;9.752;2023-02-17T14:17:04;100666.00;;;21.40;42.17
16613;BME280;8419;52.358;9.752;2023-02-17T14:19:53;100680.00;;;21.33;42.50
16613;BME280;8419;52.358;9.752;2023-02-17T14:22:38;100679.00;;;21.30;42.62
16613;BME280;8419;52.358;9.752;2023-02-17T14:25:28;100682.00;;;21.25;42.81
16613;BME280;8419;52.358;9.752;2023-02-17T14:28:19;100676.00;;;21.16;43.02
16613;BME280;8419;52.358;9.752;2023-02-17T14:31:17;100691.00;;;21.14;43.17
16613;BME280;8419;52.358;9.752;2023-02-17T14:34:03;100689.00;;;21.11;43.41
16613;BME280;8419;52.358;9.752;2023-02-17T14:36:50;100671.00;;;21.01;43.73
16613;BME280;8419;52.358;9.752;2023-02-17T14:39:37;100668.00;;;20.86;44.08
16613;BME280;8419;52.358;9.752;2023-02-17T14:42:24;100683.00;;;21.02;43.83
16613;BME280;8419;52.358;9.752;2023-02-17T14:45:12;100671.00;;;20.93;44.03
16613;BME280;8419;52.358;9.752;2023-02-17T14:47:59;100692.00;;;20.97;43.99
16613;BME280;8419;52.358;9.752;2023-02-17T14:50:48;100708.00;;;20.92;44.12
16613;BME280;8419;52.358;9.752;2023-02-17T14:53:38;100692.00;;;20.91;44.26
16613;BME280;8419;52.358;9.752;2023-02-17T14:56:30;100683.00;;;20.87;44.31
16613;BME280;8419;52.358;9.752;2023-02-17T14:59:23;100694.00;;;20.87;44.45
16613;BME280;8419;52.358;9.752;2023-02-17T15:02:17;100686.00;;;20.89;44.47
16613;BME280;8419;52.358;9.752;2023-02-17T15:05:06;100685.00;;;20.91;44.42
16613;BME280;8419;52.358;9.752;2023-02-17T15:07:55;100686.00;;;20.90;44.47
16613;BME280;8419;52.358;9.752;2023-02-17T15:10:40;100695.00;;;20.80;44.76